createdAt,value
2019-05-12T00:00:21.463Z,13.07
2019-05-12T00:02:50.108Z,13.06
2019-05-12T00:05:18.902Z,13.08
2019-05-12T00:07:48.702Z,13.08
2019-05-12T00:10:18.144Z,13.04
2019-05-12T00:12:48.229Z,12.99
2019-05-12T00:15:19.281Z,12.94
2019-05-12T00:17:48.653Z,12.90
2019-05-12T00:20:18.448Z,12.90
2019-05-12T00:22:49.143Z,12.96
2019-05-12T00:25:18.576Z,12.95
2019-05-12T00:27:48.536Z,12.87
2019-05-12T00:30:38.885Z,12.76
2019-05-12T00:33:09.353Z,12.76
2019-05-12T00:35:38.470Z,12.81
2019-05-12T00:38:08.963Z,12.82
2019-05-12T00:40:39.332Z,12.81
2019-05-12T00:43:09.026Z,12.73
2019-05-12T00:45:38.781Z,12.65
2019-05-12T00:48:09.051Z,12.69
2019-05-12T00:50:38.655Z,12.65
2019-05-12T00:53:09.005Z,12.63
2019-05-12T00:55:38.503Z,12.61
2019-05-12T00:58:08.410Z,12.70
2019-05-12T01:00:40.673Z,12.56
2019-05-12T01:03:08.856Z,12.58
2019-05-12T01:05:38.352Z,12.52
2019-05-12T01:08:09.015Z,12.60
2019-05-12T01:10:39.037Z,12.46
2019-05-12T01:13:08.745Z,12.45
2019-05-12T01:15:38.113Z,12.51
2019-05-12T01:18:09.383Z,12.48
2019-05-12T01:20:38.881Z,12.35
2019-05-12T01:23:08.665Z,12.33
2019-05-12T01:25:39.649Z,12.31
2019-05-12T01:28:09.041Z,12.39
2019-05-12T01:30:38.940Z,12.36
2019-05-12T01:33:08.697Z,12.30
2019-05-12T01:35:38.813Z,12.33
2019-05-12T01:38:08.230Z,12.22
2019-05-12T01:40:39.384Z,12.24
2019-05-12T01:43:08.509Z,12.18
2019-05-12T01:45:38.048Z,12.19
2019-05-12T01:48:08.735Z,12.12
2019-05-12T01:50:38.606Z,12.13
2019-05-12T01:53:08.383Z,12.18
2019-05-12T01:55:38.716Z,12.08
2019-05-12T01:58:08.516Z,12.18
2019-05-12T02:00:38.794Z,12.09
2019-05-12T02:03:09.023Z,12.12
2019-05-12T02:05:39.816Z,12.14
2019-05-12T02:08:10.114Z,12.11
2019-05-12T02:10:39.100Z,12.00
2019-05-12T02:13:08.141Z,11.98
2019-05-12T02:15:38.349Z,11.95
2019-05-12T02:18:09.175Z,11.96
2019-05-12T02:20:38.186Z,11.97
2019-05-12T02:23:08.993Z,12.04
2019-05-12T02:25:38.186Z,12.03
2019-05-12T02:28:09.201Z,12.05
2019-05-12T02:30:41.542Z,12.04
2019-05-12T02:33:08.003Z,12.01
2019-05-12T02:35:36.659Z,11.99
2019-05-12T02:38:05.640Z,11.97
2019-05-12T02:40:35.107Z,11.95
2019-05-12T02:43:05.283Z,11.92
2019-05-12T02:45:35.908Z,11.91
2019-05-12T02:48:05.491Z,12.03
2019-05-12T02:50:37.672Z,11.92
2019-05-12T02:53:07.297Z,11.92
2019-05-12T02:55:36.455Z,11.92
2019-05-12T02:58:05.975Z,11.89
2019-05-12T03:00:36.677Z,11.88
2019-05-12T03:03:08.627Z,11.79
2019-05-12T03:05:39.302Z,11.84
2019-05-12T03:08:07.987Z,11.78
2019-05-12T03:10:36.924Z,11.76
2019-05-12T03:13:05.644Z,11.78
2019-05-12T03:15:36.483Z,11.65
2019-05-12T03:18:06.542Z,11.69
2019-05-12T03:20:36.012Z,11.64
2019-05-12T03:23:06.187Z,11.63
2019-05-12T03:25:36.468Z,11.70
2019-05-12T03:28:08.447Z,11.71
2019-05-12T03:30:39.458Z,11.67
2019-05-12T03:33:10.528Z,11.71
2019-05-12T03:35:42.888Z,11.79
2019-05-12T03:38:07.655Z,11.77
2019-05-12T03:40:38.450Z,11.81
2019-05-12T03:43:06.638Z,11.90
2019-05-12T03:45:36.330Z,11.95
2019-05-12T03:48:06.121Z,12.01
2019-05-12T03:50:36.171Z,12.12
2019-05-12T03:53:10.213Z,12.13
2019-05-12T03:55:41.545Z,12.23
2019-05-12T03:58:06.701Z,12.21
2019-05-12T04:00:36.339Z,12.30
2019-05-12T04:03:06.212Z,12.33
2019-05-12T04:05:36.294Z,12.37
2019-05-12T04:08:06.175Z,12.54
2019-05-12T04:10:36.436Z,12.52
2019-05-12T04:13:06.030Z,12.49
2019-05-12T04:15:35.625Z,12.53
2019-05-12T04:18:05.953Z,12.65
2019-05-12T04:20:35.992Z,12.70
2019-05-12T04:23:06.251Z,12.74
2019-05-12T04:25:51.139Z,12.77
2019-05-12T04:28:05.878Z,12.89
2019-05-12T04:30:35.538Z,12.84
2019-05-12T04:33:05.885Z,12.88
2019-05-12T04:35:35.622Z,12.91
2019-05-12T04:38:05.210Z,13.00
2019-05-12T04:40:35.832Z,13.07
2019-05-12T04:43:06.083Z,13.07
2019-05-12T04:45:35.270Z,13.06
2019-05-12T04:48:05.655Z,13.14
2019-05-12T04:50:35.619Z,13.30
2019-05-12T04:53:06.404Z,13.48
2019-05-12T04:55:36.350Z,13.44
2019-05-12T04:58:05.865Z,13.64
2019-05-12T05:00:35.586Z,13.82
2019-05-12T05:03:06.005Z,13.96
2019-05-12T05:05:36.102Z,14.13
2019-05-12T05:08:05.476Z,14.21
2019-05-12T05:10:34.943Z,14.32
2019-05-12T05:13:05.119Z,14.36
2019-05-12T05:15:35.132Z,14.50
2019-05-12T05:18:06.238Z,14.66
2019-05-12T05:20:34.836Z,14.85
2019-05-12T05:23:04.030Z,14.95
2019-05-12T05:25:34.769Z,15.23
2019-05-12T05:28:04.522Z,15.39
2019-05-12T05:30:34.064Z,15.52
2019-05-12T05:33:04.697Z,15.78
2019-05-12T05:35:39.279Z,15.97
2019-05-12T05:38:05.288Z,16.16
2019-05-12T05:40:35.671Z,16.35
2019-05-12T05:43:12.485Z,16.59
2019-05-12T05:45:35.410Z,16.83
2019-05-12T05:48:09.507Z,17.12
2019-05-12T05:50:34.886Z,17.41
2019-05-12T05:53:04.092Z,17.75
2019-05-12T05:55:34.458Z,18.01
2019-05-12T05:58:08.572Z,18.27
2019-05-12T06:00:36.059Z,18.48
2019-05-12T06:03:05.924Z,18.75
2019-05-12T06:05:38.430Z,18.96
2019-05-12T06:08:09.512Z,19.23
2019-05-12T06:10:40.168Z,19.40
2019-05-12T06:13:05.989Z,19.58
2019-05-12T06:15:40.476Z,19.62
2019-05-12T06:18:06.058Z,19.77
2019-05-12T06:20:37.896Z,20.03
2019-05-12T06:23:05.073Z,20.31
2019-05-12T06:25:45.584Z,20.57
2019-05-12T06:28:08.424Z,20.98
2019-05-12T06:30:43.946Z,21.42
2019-05-12T06:33:06.338Z,21.89
2019-05-12T06:35:40.816Z,22.05
2019-05-12T06:38:05.497Z,22.47
2019-05-12T06:40:40.388Z,22.70
2019-05-12T06:43:04.845Z,22.44
2019-05-12T06:45:41.741Z,22.86
2019-05-12T06:48:04.323Z,23.30
2019-05-12T06:50:38.709Z,23.38
2019-05-12T06:53:05.106Z,23.63
2019-05-12T06:55:39.024Z,23.36
2019-05-12T06:58:05.156Z,23.44
2019-05-12T07:00:35.187Z,23.47
2019-05-12T07:03:04.908Z,24.11
2019-05-12T07:05:38.261Z,24.69
2019-05-12T07:08:04.694Z,24.74
2019-05-12T07:10:41.595Z,25.29
2019-05-12T07:13:05.519Z,25.60
2019-05-12T07:15:40.196Z,25.93
2019-05-12T07:18:17.678Z,26.32
2019-05-12T07:20:45.894Z,27.37
2019-05-12T07:23:19.430Z,28.26
2019-05-12T07:25:45.006Z,28.76
2019-05-12T07:28:14.408Z,30.52
2019-05-12T07:30:44.156Z,31.39
2019-05-12T07:33:14.601Z,32.09
2019-05-12T07:35:44.704Z,34.05
2019-05-12T07:38:20.871Z,34.89
2019-05-12T07:40:46.948Z,36.09
2019-05-12T07:43:20.444Z,36.56
2019-05-12T07:45:53.884Z,38.90
2019-05-12T07:48:19.861Z,40.35
2019-05-12T07:50:50.289Z,40.87
2019-05-12T07:53:18.830Z,41.98
2019-05-12T07:55:49.333Z,41.73
2019-05-12T07:58:19.146Z,43.05
2019-05-12T08:00:56.257Z,43.14
2019-05-12T08:03:21.285Z,43.26
2019-05-12T08:05:51.349Z,43.90
2019-05-12T08:08:19.392Z,44.09
2019-05-12T08:10:51.552Z,44.56
2019-05-12T08:13:18.806Z,45.33
2019-05-12T08:15:51.340Z,44.91
2019-05-12T08:18:17.905Z,43.94
2019-05-12T08:20:46.547Z,45.43
2019-05-12T08:23:15.186Z,46.31
2019-05-12T08:25:43.935Z,46.90
2019-05-12T08:28:18.159Z,46.97
2019-05-12T08:30:47.395Z,46.19
2019-05-12T08:33:14.653Z,45.99
2019-05-12T08:35:43.998Z,46.75
2019-05-12T08:38:14.556Z,46.45
2019-05-12T08:40:48.907Z,46.75
2019-05-12T08:43:14.975Z,45.90
2019-05-12T08:45:44.300Z,45.19
2019-05-12T08:48:19.179Z,44.93
2019-05-12T08:50:46.043Z,44.42
2019-05-12T08:53:20.459Z,44.36
2019-05-12T08:55:44.267Z,44.74
2019-05-12T08:58:29.587Z,44.30
2019-05-12T09:00:50.196Z,43.50
2019-05-12T09:03:14.286Z,44.43
2019-05-12T09:05:44.541Z,43.70
2019-05-12T09:08:13.943Z,43.76
2019-05-12T09:10:44.972Z,43.93
2019-05-12T09:13:14.353Z,44.97
2019-05-12T09:15:43.836Z,44.09
2019-05-12T09:18:14.520Z,44.62
2019-05-12T09:20:48.854Z,44.15
2019-05-12T09:23:13.770Z,42.18
2019-05-12T09:25:45.261Z,41.57
2019-05-12T09:28:13.797Z,41.54
2019-05-12T09:30:47.600Z,41.32
2019-05-12T09:33:14.077Z,40.43
2019-05-12T09:35:43.830Z,39.13
2019-05-12T09:38:21.236Z,38.26
2019-05-12T09:40:43.711Z,37.98
2019-05-12T09:43:13.647Z,37.53
2019-05-12T09:45:52.079Z,38.14
2019-05-12T09:48:14.040Z,38.20
2019-05-12T09:50:46.232Z,37.40
2019-05-12T09:53:14.580Z,35.46
2019-05-12T09:55:43.917Z,34.75
2019-05-12T09:58:14.157Z,35.11
2019-05-12T10:00:43.885Z,35.01
2019-05-12T10:03:13.906Z,35.45
2019-05-12T10:05:44.212Z,35.76
2019-05-12T10:08:14.169Z,35.84
2019-05-12T10:10:47.012Z,35.92
2019-05-12T10:13:15.005Z,36.14
2019-05-12T10:15:43.786Z,36.12
2019-05-12T10:18:14.375Z,36.29
2019-05-12T10:20:44.100Z,35.76
2019-05-12T10:23:16.510Z,35.51
2019-05-12T10:25:44.613Z,36.07
2019-05-12T10:28:16.249Z,35.46
2019-05-12T10:30:47.267Z,35.56
2019-05-12T10:33:14.798Z,36.75
2019-05-12T10:35:44.089Z,37.89
2019-05-12T10:38:13.716Z,37.63
2019-05-12T10:40:44.402Z,37.84
2019-05-12T10:43:13.083Z,37.92
2019-05-12T10:45:44.199Z,36.99
2019-05-12T10:48:14.194Z,35.16
2019-05-12T10:50:44.273Z,34.12
2019-05-12T10:53:15.754Z,33.01
2019-05-12T10:55:44.110Z,31.38
2019-05-12T10:58:14.624Z,29.99
2019-05-12T11:00:44.376Z,28.76
2019-05-12T11:03:15.488Z,28.87
2019-05-12T11:05:44.133Z,28.80
2019-05-12T11:08:14.301Z,28.24
2019-05-12T11:10:44.695Z,28.06
2019-05-12T11:13:16.225Z,27.90
2019-05-12T11:15:48.246Z,27.89
2019-05-12T11:18:20.647Z,27.78
2019-05-12T11:20:46.408Z,27.68
2019-05-12T11:23:15.048Z,27.40
2019-05-12T11:25:44.051Z,27.36
2019-05-12T11:28:13.989Z,27.37
2019-05-12T11:30:43.655Z,27.72
2019-05-12T11:33:14.243Z,27.64
2019-05-12T11:35:43.540Z,27.83
2019-05-12T11:38:13.409Z,27.70
2019-05-12T11:40:43.764Z,27.67
2019-05-12T11:43:14.349Z,27.78
2019-05-12T11:45:44.193Z,27.76
2019-05-12T11:48:14.416Z,27.61
2019-05-12T11:50:47.842Z,27.29
2019-05-12T11:53:13.945Z,27.01
2019-05-12T11:55:43.707Z,26.34
2019-05-12T11:58:12.652Z,26.39
2019-05-12T12:00:45.432Z,26.42
2019-05-12T12:03:17.898Z,26.00
2019-05-12T12:05:44.447Z,25.78
2019-05-12T12:08:14.466Z,25.87
2019-05-12T12:10:43.618Z,25.88
2019-05-12T12:13:14.174Z,25.74
2019-05-12T12:15:42.758Z,25.17
2019-05-12T12:18:14.965Z,25.32
2019-05-12T12:20:44.091Z,25.37
2019-05-12T12:23:13.950Z,25.40
2019-05-12T12:25:43.217Z,25.50
2019-05-12T12:28:13.639Z,25.55
2019-05-12T12:30:47.224Z,25.22
2019-05-12T12:33:14.358Z,25.09
2019-05-12T12:35:44.553Z,25.34
2019-05-12T12:38:14.213Z,25.39
2019-05-12T12:40:44.147Z,25.44
2019-05-12T12:43:13.817Z,25.58
2019-05-12T12:45:44.314Z,25.51
2019-05-12T12:48:13.731Z,25.50
2019-05-12T12:50:44.552Z,25.42
2019-05-12T12:53:12.943Z,25.43
2019-05-12T12:55:43.458Z,25.34
2019-05-12T12:58:13.968Z,25.25
2019-05-12T13:00:47.386Z,25.19
2019-05-12T13:03:14.344Z,24.85
2019-05-12T13:05:43.867Z,24.64
2019-05-12T13:08:12.691Z,24.63
2019-05-12T13:10:47.244Z,24.62
2019-05-12T13:13:14.067Z,24.61
2019-05-12T13:15:44.235Z,24.63
2019-05-12T13:18:17.942Z,24.61
2019-05-12T13:20:43.626Z,24.83
2019-05-12T13:23:14.200Z,24.74
2019-05-12T13:25:48.405Z,24.72
2019-05-12T13:28:18.819Z,24.87
2019-05-12T13:30:47.085Z,24.85
2019-05-12T13:33:17.203Z,25.09
2019-05-12T13:35:44.078Z,25.05
2019-05-12T13:38:14.461Z,25.10
2019-05-12T13:40:44.213Z,24.95
2019-05-12T13:43:15.526Z,24.95
2019-05-12T13:45:44.612Z,24.84
2019-05-12T13:48:15.943Z,24.91
2019-05-12T13:50:43.801Z,24.99
2019-05-12T13:53:13.912Z,25.28
2019-05-12T13:55:45.442Z,25.44
2019-05-12T13:58:13.655Z,25.42
2019-05-12T14:00:50.822Z,25.46
2019-05-12T14:03:14.031Z,25.38
2019-05-12T14:05:50.556Z,25.06
2019-05-12T14:08:14.604Z,24.95
2019-05-12T14:10:52.888Z,25.03
2019-05-12T14:13:14.142Z,25.06
2019-05-12T14:15:44.272Z,25.17
2019-05-12T14:18:16.431Z,25.12
2019-05-12T14:20:45.181Z,25.21
2019-05-12T14:23:14.575Z,25.01
2019-05-12T14:25:44.399Z,24.91
2019-05-12T14:28:16.266Z,24.94
2019-05-12T14:30:47.416Z,24.93
2019-05-12T14:33:14.124Z,24.96
2019-05-12T14:35:43.751Z,24.65
2019-05-12T14:38:14.219Z,24.45
2019-05-12T14:40:43.069Z,24.54
2019-05-12T14:43:16.720Z,24.46
2019-05-12T14:45:44.037Z,24.39
2019-05-12T14:48:13.679Z,24.45
2019-05-12T14:50:44.199Z,24.34
2019-05-12T14:53:14.471Z,24.14
2019-05-12T14:55:43.264Z,23.77
2019-05-12T14:58:17.638Z,23.56
2019-05-12T15:00:44.422Z,23.45
2019-05-12T15:03:16.149Z,23.37
2019-05-12T15:05:47.396Z,23.27
2019-05-12T15:08:15.507Z,23.19
2019-05-12T15:10:43.845Z,23.28
2019-05-12T15:13:13.936Z,23.30
2019-05-12T15:15:44.053Z,23.06
2019-05-12T15:18:15.503Z,22.95
2019-05-12T15:20:49.732Z,22.47
2019-05-12T15:23:14.400Z,22.50
2019-05-12T15:25:43.343Z,22.45
2019-05-12T15:28:14.428Z,22.34
2019-05-12T15:30:43.621Z,22.44
2019-05-12T15:33:13.912Z,22.44
2019-05-12T15:35:43.902Z,22.44
2019-05-12T15:38:14.650Z,22.49
2019-05-12T15:40:43.419Z,22.53
2019-05-12T15:43:13.887Z,22.59
2019-05-12T15:45:43.628Z,22.65
2019-05-12T15:48:14.572Z,22.69
2019-05-12T15:50:45.707Z,22.58
2019-05-12T15:53:21.770Z,22.45
2019-05-12T15:55:43.707Z,22.41
2019-05-12T15:58:14.174Z,22.30
2019-05-12T16:00:43.791Z,22.32
2019-05-12T16:03:12.726Z,22.26
2019-05-12T16:05:41.383Z,22.18
2019-05-12T16:08:10.093Z,22.16
2019-05-12T16:10:38.770Z,22.02
2019-05-12T16:13:07.431Z,22.04
2019-05-12T16:15:36.539Z,22.01
2019-05-12T16:18:09.878Z,21.96
2019-05-12T16:20:35.881Z,21.92
2019-05-12T16:23:04.530Z,21.86
2019-05-12T16:25:34.151Z,21.90
2019-05-12T16:28:07.575Z,21.91
2019-05-12T16:30:34.019Z,21.91
2019-05-12T16:33:03.563Z,21.86
2019-05-12T16:35:34.485Z,21.93
2019-05-12T16:38:06.047Z,21.83
2019-05-12T16:40:34.414Z,21.87
2019-05-12T16:43:03.923Z,21.85
2019-05-12T16:45:34.059Z,21.75
2019-05-12T16:48:05.527Z,21.78
2019-05-12T16:50:34.455Z,21.81
2019-05-12T16:53:03.236Z,21.73
2019-05-12T16:55:44.739Z,21.66
2019-05-12T16:58:03.994Z,21.60
2019-05-12T17:00:33.886Z,21.64
2019-05-12T17:03:03.760Z,21.62
2019-05-12T17:05:33.558Z,21.58
2019-05-12T17:08:04.196Z,21.44
2019-05-12T17:10:33.817Z,21.41
2019-05-12T17:13:07.586Z,21.15
2019-05-12T17:15:33.807Z,21.27
2019-05-12T17:18:04.410Z,21.22
2019-05-12T17:20:33.373Z,21.22
2019-05-12T17:23:03.453Z,21.19
2019-05-12T17:25:34.382Z,21.16
2019-05-12T17:28:07.049Z,21.06
2019-05-12T17:30:37.386Z,21.01
2019-05-12T17:33:06.211Z,20.91
2019-05-12T17:35:35.265Z,20.89
2019-05-12T17:38:04.545Z,20.76
2019-05-12T17:40:36.281Z,20.65
2019-05-12T17:43:11.622Z,20.51
2019-05-12T17:45:35.968Z,20.42
2019-05-12T17:48:07.600Z,20.39
2019-05-12T17:50:35.119Z,20.30
2019-05-12T17:53:04.556Z,20.27
2019-05-12T17:55:33.457Z,20.24
2019-05-12T17:58:04.140Z,20.21
2019-05-12T18:00:33.602Z,20.17
2019-05-12T18:03:17.397Z,20.12
2019-05-12T18:05:33.938Z,20.13
2019-05-12T18:08:04.325Z,20.13
2019-05-12T18:10:37.960Z,20.07
2019-05-12T18:13:03.896Z,20.11
2019-05-12T18:15:37.741Z,20.04
2019-05-12T18:18:04.055Z,20.02
2019-05-12T18:20:40.000Z,20.01
2019-05-12T18:23:04.946Z,20.00
2019-05-12T18:25:36.680Z,20.00
2019-05-12T18:28:03.932Z,20.02
2019-05-12T18:30:32.675Z,19.99
2019-05-12T18:33:07.020Z,19.98
2019-05-12T18:35:31.703Z,19.98
2019-05-12T18:38:00.391Z,19.99
2019-05-12T18:40:29.046Z,19.98
2019-05-12T18:42:57.763Z,19.91
2019-05-12T18:45:26.402Z,19.89
2019-05-12T18:47:55.026Z,19.88
2019-05-12T18:50:27.222Z,19.88
2019-05-12T18:52:54.128Z,19.84
2019-05-12T18:55:23.560Z,19.83
2019-05-12T18:57:54.556Z,19.83
2019-05-12T19:00:24.449Z,19.75
2019-05-12T19:02:54.655Z,19.73
2019-05-12T19:05:30.343Z,19.66
2019-05-12T19:07:54.264Z,19.69
2019-05-12T19:10:24.103Z,19.69
2019-05-12T19:13:01.151Z,19.61
2019-05-12T19:15:23.554Z,19.52
2019-05-12T19:18:03.747Z,19.57
2019-05-12T19:20:36.112Z,19.49
2019-05-12T19:23:03.563Z,19.47
2019-05-12T19:25:35.871Z,19.28
2019-05-12T19:28:06.946Z,19.32
2019-05-12T19:30:36.422Z,19.34
2019-05-12T19:33:06.390Z,19.31
2019-05-12T19:35:37.534Z,19.20
2019-05-12T19:38:04.618Z,19.14
2019-05-12T19:40:33.292Z,19.00
2019-05-12T19:43:07.924Z,18.93
2019-05-12T19:45:33.764Z,18.91
2019-05-12T19:48:04.120Z,18.80
2019-05-12T19:50:32.899Z,18.76
2019-05-12T19:53:01.533Z,18.66
2019-05-12T19:55:33.752Z,18.61
2019-05-12T19:58:10.725Z,18.56
2019-05-12T20:00:33.614Z,18.64
2019-05-12T20:03:04.522Z,18.56
2019-05-12T20:05:34.322Z,18.47
2019-05-12T20:08:04.103Z,18.29
2019-05-12T20:10:36.192Z,18.39
2019-05-12T20:13:03.948Z,18.41
2019-05-12T20:15:36.690Z,18.39
2019-05-12T20:18:04.341Z,18.46
2019-05-12T20:20:36.592Z,18.50
2019-05-12T20:23:03.659Z,18.48
2019-05-12T20:25:34.021Z,18.54
2019-05-12T20:28:09.221Z,18.47
2019-05-12T20:30:33.212Z,18.53
2019-05-12T20:33:04.155Z,18.53
2019-05-12T20:35:33.769Z,18.49
2019-05-12T20:38:04.220Z,18.47
2019-05-12T20:40:37.684Z,18.51
2019-05-12T20:43:08.352Z,18.57
2019-05-12T20:45:40.779Z,18.51
2019-05-12T20:48:04.223Z,18.45
2019-05-12T20:50:38.648Z,18.40
2019-05-12T20:53:03.943Z,18.38
2019-05-12T20:55:39.529Z,18.36
2019-05-12T20:58:04.467Z,18.39
2019-05-12T21:00:33.715Z,18.39
2019-05-12T21:03:04.403Z,18.38
2019-05-12T21:05:34.304Z,18.41
2019-05-12T21:08:11.004Z,18.43
2019-05-12T21:10:34.117Z,18.35
2019-05-12T21:13:02.883Z,18.35
2019-05-12T21:15:37.260Z,18.29
2019-05-12T21:18:06.957Z,18.28
2019-05-12T21:20:33.747Z,18.14
2019-05-12T21:23:02.534Z,18.20
2019-05-12T21:25:31.192Z,18.13
2019-05-12T21:28:07.279Z,18.02
2019-05-12T21:30:30.283Z,17.94
2019-05-12T21:33:01.315Z,17.96
2019-05-12T21:35:32.053Z,17.86
2019-05-12T21:37:59.650Z,17.88
2019-05-12T21:40:30.653Z,17.81
2019-05-12T21:42:58.613Z,17.81
2019-05-12T21:45:30.903Z,17.71
2019-05-12T21:47:57.540Z,17.75
2019-05-12T21:50:32.677Z,17.67
2019-05-12T21:52:59.802Z,17.64
2019-05-12T21:55:27.091Z,17.57
2019-05-12T21:57:55.722Z,17.52
2019-05-12T22:00:31.629Z,17.50
2019-05-12T22:03:02.499Z,17.44
2019-05-12T22:05:48.157Z,17.34
2019-05-12T22:08:03.241Z,17.16
2019-05-12T22:10:34.473Z,17.26
2019-05-12T22:13:06.913Z,17.29
2019-05-12T22:15:33.881Z,17.27
2019-05-12T22:18:04.823Z,17.28
2019-05-12T22:20:35.465Z,17.18
2019-05-12T22:23:11.654Z,17.12
2019-05-12T22:25:35.558Z,16.99
2019-05-12T22:28:09.713Z,16.98
2019-05-12T22:30:35.187Z,16.92
2019-05-12T22:33:10.453Z,16.88
2019-05-12T22:35:34.435Z,16.84
2019-05-12T22:38:09.381Z,16.82
2019-05-12T22:40:33.634Z,16.74
2019-05-12T22:43:04.498Z,16.76
2019-05-12T22:45:38.173Z,16.75
2019-05-12T22:48:04.242Z,16.66
2019-05-12T22:50:35.154Z,16.66
2019-05-12T22:53:04.468Z,16.57
2019-05-12T22:55:35.953Z,16.56
2019-05-12T22:58:04.421Z,16.56
2019-05-12T23:00:34.188Z,16.46
2019-05-12T23:03:07.209Z,16.39
2019-05-12T23:05:33.618Z,16.33
2019-05-12T23:08:05.976Z,16.25
2019-05-12T23:10:32.744Z,16.35
2019-05-12T23:13:02.082Z,16.31
2019-05-12T23:15:33.446Z,16.26
2019-05-12T23:18:04.203Z,16.26
2019-05-12T23:20:33.315Z,16.07
2019-05-12T23:23:03.862Z,16.13
2019-05-12T23:25:33.676Z,15.95
2019-05-12T23:28:06.726Z,15.96
2019-05-12T23:30:32.851Z,15.96
2019-05-12T23:33:03.844Z,15.91
2019-05-12T23:35:37.363Z,15.89
2019-05-12T23:38:04.201Z,15.84
2019-05-12T23:40:34.491Z,15.82
2019-05-12T23:43:04.065Z,15.82
2019-05-12T23:45:34.003Z,15.81
2019-05-12T23:48:03.870Z,15.73
2019-05-12T23:50:32.851Z,15.69
2019-05-12T23:53:03.698Z,15.72
2019-05-12T23:55:35.011Z,15.64
2019-05-12T23:58:04.219Z,15.62
